sensor_id;sensor_type;location;lat;lon;timestamp;P1;durP1;ratioP1;P2;durP2;ratioP2
49071;SDS011;52656;52.610;10.236;2023-03-13T00:00:09;35.67;;;8.73;;
49071;SDS011;52656;52.610;10.236;2023-03-13T00:02:35;30.60;;;8.57;;
49071;SDS011;52656;52.610;10.236;2023-03-13T00:05:00;32.25;;;9.27;;
49071;SDS011;52656;52.610;10.236;2023-03-13T00:07:25;34.95;;;8.70;;
49071;SDS011;52656;52.610;10.236;2023-03-13T00:09:51;30.33;;;8.65;;
49071;SDS011;52656;52.610;10.236;2023-03-13T00:12:16;31.05;;;8.48;;
49071;SDS011;52656;52.610;10.236;2023-03-13T00:14:42;35.75;;;8.70;;
49071;SDS011;52656;52.610;10.236;2023-03-13T00:17:07;42.50;;;9.25;;
49071;SDS011;52656;52.610;10.236;2023-03-13T00:19:32;30.33;;;8.68;;
49071;SDS011;52656;52.610;10.236;2023-03-13T00:21:57;36.65;;;9.45;;
49071;SDS011;52656;52.610;10.236;2023-03-13T00:24:23;33.65;;;8.88;;
49071;SDS011;52656;52.610;10.236;2023-03-13T00:26:48;34.97;;;7.90;;
49071;SDS011;52656;52.610;10.236;2023-03-13T00:29:13;28.88;;;6.97;;
49071;SDS011;52656;52.610;10.236;2023-03-13T00:31:39;35.60;;;8.13;;
49071;SDS011;52656;52.610;10.236;2023-03-13T00:34:04;35.00;;;7.95;;
49071;SDS011;52656;52.610;10.236;2023-03-13T00:36:31;29.20;;;6.93;;
49071;SDS011;52656;52.610;10.236;2023-03-13T00:38:58;26.25;;;7.32;;
49071;SDS011;52656;52.610;10.236;2023-03-13T00:41:25;31.13;;;6.07;;
49071;SDS011;52656;52.610;10.236;2023-03-13T00:43:54;31.60;;;7.70;;
49071;SDS011;52656;52.610;10.236;2023-03-13T00:46:22;30.02;;;6.68;;
49071;SDS011;52656;52.610;10.236;2023-03-13T00:48:48;26.65;;;7.03;;
49071;SDS011;52656;52.610;10.236;2023-03-13T00:53:41;27.42;;;7.47;;
49071;SDS011;52656;52.610;10.236;2023-03-13T00:58:34;29.25;;;6.47;;
49071;SDS011;52656;52.610;10.236;2023-03-13T01:03:44;32.72;;;7.10;;
49071;SDS011;52656;52.610;10.236;2023-03-13T01:06:15;28.63;;;6.78;;
49071;SDS011;52656;52.610;10.236;2023-03-13T01:08:42;24.98;;;6.20;;
49071;SDS011;52656;52.610;10.236;2023-03-13T01:11:09;35.85;;;6.35;;
49071;SDS011;52656;52.610;10.236;2023-03-13T01:13:36;33.20;;;5.70;;
49071;SDS011;52656;52.610;10.236;2023-03-13T01:18:59;21.15;;;5.15;;
49071;SDS011;52656;52.610;10.236;2023-03-13T01:21:26;21.95;;;5.47;;
49071;SDS011;52656;52.610;10.236;2023-03-13T01:23:52;25.10;;;5.85;;
49071;SDS011;52656;52.610;10.236;2023-03-13T01:26:19;26.10;;;6.65;;
49071;SDS011;52656;52.610;10.236;2023-03-13T01:28:45;24.20;;;6.50;;
49071;SDS011;52656;52.610;10.236;2023-03-13T01:33:35;21.80;;;5.30;;
49071;SDS011;52656;52.610;10.236;2023-03-13T01:36:01;24.87;;;5.63;;
49071;SDS011;52656;52.610;10.236;2023-03-13T01:38:27;21.80;;;5.18;;
49071;SDS011;52656;52.610;10.236;2023-03-13T01:40:53;24.70;;;6.82;;
49071;SDS011;52656;52.610;10.236;2023-03-13T01:43:19;23.35;;;6.20;;
49071;SDS011;52656;52.610;10.236;2023-03-13T01:45:52;23.42;;;5.63;;
49071;SDS011;52656;52.610;10.236;2023-03-13T01:48:19;27.52;;;5.28;;
49071;SDS011;52656;52.610;10.236;2023-03-13T01:50:50;33.50;;;7.28;;
49071;SDS011;52656;52.610;10.236;2023-03-13T01:53:16;20.65;;;5.80;;
49071;SDS011;52656;52.610;10.236;2023-03-13T01:55:42;19.60;;;5.35;;
49071;SDS011;52656;52.610;10.236;2023-03-13T01:58:07;25.60;;;6.80;;
49071;SDS011;52656;52.610;10.236;2023-03-13T02:00:33;21.83;;;5.15;;
49071;SDS011;52656;52.610;10.236;2023-03-13T02:03:02;19.77;;;4.97;;
49071;SDS011;52656;52.610;10.236;2023-03-13T02:05:33;22.85;;;5.75;;
49071;SDS011;52656;52.610;10.236;2023-03-13T02:08:07;23.38;;;6.43;;
49071;SDS011;52656;52.610;10.236;2023-03-13T02:10:41;23.58;;;4.82;;
49071;SDS011;52656;52.610;10.236;2023-03-13T02:13:14;26.63;;;5.15;;
49071;SDS011;52656;52.610;10.236;2023-03-13T02:15:41;23.75;;;5.15;;
49071;SDS011;52656;52.610;10.236;2023-03-13T02:18:06;26.45;;;5.30;;
49071;SDS011;52656;52.610;10.236;2023-03-13T02:20:32;21.15;;;5.82;;
49071;SDS011;52656;52.610;10.236;2023-03-13T02:28:06;27.80;;;5.15;;
49071;SDS011;52656;52.610;10.236;2023-03-13T02:30:36;20.92;;;5.20;;
49071;SDS011;52656;52.610;10.236;2023-03-13T02:33:03;21.27;;;5.63;;
49071;SDS011;52656;52.610;10.236;2023-03-13T02:35:28;21.60;;;5.25;;
49071;SDS011;52656;52.610;10.236;2023-03-13T02:37:56;21.23;;;5.38;;
49071;SDS011;52656;52.610;10.236;2023-03-13T02:40:30;24.27;;;4.90;;
49071;SDS011;52656;52.610;10.236;2023-03-13T02:42:59;22.40;;;5.82;;
49071;SDS011;52656;52.610;10.236;2023-03-13T02:45:26;39.50;;;6.65;;
49071;SDS011;52656;52.610;10.236;2023-03-13T02:47:52;25.35;;;5.28;;
49071;SDS011;52656;52.610;10.236;2023-03-13T02:50:17;22.60;;;5.22;;
49071;SDS011;52656;52.610;10.236;2023-03-13T02:55:09;25.17;;;4.65;;
49071;SDS011;52656;52.610;10.236;2023-03-13T02:57:38;27.63;;;5.10;;
49071;SDS011;52656;52.610;10.236;2023-03-13T03:00:05;24.00;;;5.57;;
49071;SDS011;52656;52.610;10.236;2023-03-13T03:02:31;24.48;;;4.93;;
49071;SDS011;52656;52.610;10.236;2023-03-13T03:04:57;25.85;;;5.60;;
49071;SDS011;52656;52.610;10.236;2023-03-13T03:07:22;18.13;;;4.33;;
49071;SDS011;52656;52.610;10.236;2023-03-13T03:09:47;27.30;;;4.90;;
49071;SDS011;52656;52.610;10.236;2023-03-13T03:12:13;28.25;;;5.50;;
49071;SDS011;52656;52.610;10.236;2023-03-13T03:14:38;24.83;;;4.85;;
49071;SDS011;52656;52.610;10.236;2023-03-13T03:17:04;21.63;;;5.25;;
49071;SDS011;52656;52.610;10.236;2023-03-13T03:19:29;25.33;;;6.00;;
49071;SDS011;52656;52.610;10.236;2023-03-13T03:21:54;30.00;;;6.60;;
49071;SDS011;52656;52.610;10.236;2023-03-13T03:24:19;28.55;;;5.78;;
49071;SDS011;52656;52.610;10.236;2023-03-13T03:26:45;26.73;;;5.45;;
49071;SDS011;52656;52.610;10.236;2023-03-13T03:29:10;19.45;;;5.63;;
49071;SDS011;52656;52.610;10.236;2023-03-13T03:31:36;25.73;;;5.88;;
49071;SDS011;52656;52.610;10.236;2023-03-13T03:34:01;19.93;;;4.60;;
49071;SDS011;52656;52.610;10.236;2023-03-13T03:36:27;20.00;;;4.70;;
49071;SDS011;52656;52.610;10.236;2023-03-13T03:38:52;22.80;;;5.80;;
49071;SDS011;52656;52.610;10.236;2023-03-13T03:41:18;25.43;;;6.23;;
49071;SDS011;52656;52.610;10.236;2023-03-13T03:43:43;25.42;;;5.30;;
49071;SDS011;52656;52.610;10.236;2023-03-13T03:46:09;21.02;;;5.75;;
49071;SDS011;52656;52.610;10.236;2023-03-13T03:48:35;22.33;;;5.18;;
49071;SDS011;52656;52.610;10.236;2023-03-13T03:51:01;29.15;;;5.20;;
49071;SDS011;52656;52.610;10.236;2023-03-13T03:53:26;17.60;;;4.45;;
49071;SDS011;52656;52.610;10.236;2023-03-13T03:58:18;19.20;;;4.82;;
49071;SDS011;52656;52.610;10.236;2023-03-13T04:00:44;20.02;;;5.32;;
49071;SDS011;52656;52.610;10.236;2023-03-13T04:03:11;18.02;;;4.00;;
49071;SDS011;52656;52.610;10.236;2023-03-13T04:05:37;21.38;;;5.43;;
49071;SDS011;52656;52.610;10.236;2023-03-13T04:08:03;19.08;;;4.55;;
49071;SDS011;52656;52.610;10.236;2023-03-13T04:10:29;19.67;;;5.18;;
49071;SDS011;52656;52.610;10.236;2023-03-13T04:12:54;22.03;;;5.40;;
49071;SDS011;52656;52.610;10.236;2023-03-13T04:15:19;24.03;;;5.73;;
49071;SDS011;52656;52.610;10.236;2023-03-13T04:17:45;26.33;;;4.73;;
49071;SDS011;52656;52.610;10.236;2023-03-13T04:20:10;20.37;;;4.93;;
49071;SDS011;52656;52.610;10.236;2023-03-13T04:22:37;21.55;;;5.47;;
49071;SDS011;52656;52.610;10.236;2023-03-13T04:25:03;23.52;;;4.57;;
49071;SDS011;52656;52.610;10.236;2023-03-13T04:27:28;28.60;;;4.93;;
49071;SDS011;52656;52.610;10.236;2023-03-13T04:29:54;16.58;;;4.38;;
49071;SDS011;52656;52.610;10.236;2023-03-13T04:32:19;21.53;;;5.40;;
49071;SDS011;52656;52.610;10.236;2023-03-13T04:34:44;28.63;;;5.57;;
49071;SDS011;52656;52.610;10.236;2023-03-13T04:37:10;16.60;;;4.97;;
49071;SDS011;52656;52.610;10.236;2023-03-13T04:39:35;27.77;;;5.63;;
49071;SDS011;52656;52.610;10.236;2023-03-13T04:42:00;27.47;;;5.10;;
49071;SDS011;52656;52.610;10.236;2023-03-13T04:44:25;19.37;;;5.53;;
49071;SDS011;52656;52.610;10.236;2023-03-13T04:46:51;22.67;;;5.07;;
49071;SDS011;52656;52.610;10.236;2023-03-13T04:49:16;31.17;;;5.57;;
49071;SDS011;52656;52.610;10.236;2023-03-13T04:51:42;16.95;;;5.03;;
49071;SDS011;52656;52.610;10.236;2023-03-13T04:54:08;21.80;;;4.75;;
49071;SDS011;52656;52.610;10.236;2023-03-13T04:56:34;26.05;;;6.60;;
49071;SDS011;52656;52.610;10.236;2023-03-13T04:58:59;16.20;;;5.13;;
49071;SDS011;52656;52.610;10.236;2023-03-13T05:01:25;20.10;;;5.25;;
49071;SDS011;52656;52.610;10.236;2023-03-13T05:03:50;25.88;;;5.13;;
49071;SDS011;52656;52.610;10.236;2023-03-13T05:06:15;30.23;;;5.95;;
49071;SDS011;52656;52.610;10.236;2023-03-13T05:08:41;21.95;;;5.00;;
49071;SDS011;52656;52.610;10.236;2023-03-13T05:11:06;25.00;;;4.75;;
49071;SDS011;52656;52.610;10.236;2023-03-13T05:13:32;27.33;;;5.75;;
49071;SDS011;52656;52.610;10.236;2023-03-13T05:15:58;21.50;;;4.53;;
49071;SDS011;52656;52.610;10.236;2023-03-13T05:18:23;23.48;;;4.82;;
49071;SDS011;52656;52.610;10.236;2023-03-13T05:20:48;35.00;;;5.47;;
49071;SDS011;52656;52.610;10.236;2023-03-13T05:23:14;19.05;;;5.10;;
49071;SDS011;52656;52.610;10.236;2023-03-13T05:25:39;21.88;;;5.18;;
49071;SDS011;52656;52.610;10.236;2023-03-13T05:28:04;21.20;;;5.25;;
49071;SDS011;52656;52.610;10.236;2023-03-13T05:30:30;19.00;;;5.00;;
49071;SDS011;52656;52.610;10.236;2023-03-13T05:32:55;31.43;;;6.13;;
49071;SDS011;52656;52.610;10.236;2023-03-13T05:35:20;18.33;;;5.67;;
49071;SDS011;52656;52.610;10.236;2023-03-13T05:37:46;22.05;;;5.68;;
49071;SDS011;52656;52.610;10.236;2023-03-13T05:40:11;23.77;;;5.85;;
49071;SDS011;52656;52.610;10.236;2023-03-13T05:45:03;17.80;;;5.32;;
49071;SDS011;52656;52.610;10.236;2023-03-13T05:47:28;22.10;;;4.72;;
49071;SDS011;52656;52.610;10.236;2023-03-13T05:49:54;25.98;;;5.13;;
49071;SDS011;52656;52.610;10.236;2023-03-13T05:52:19;24.48;;;5.55;;
49071;SDS011;52656;52.610;10.236;2023-03-13T05:54:44;16.60;;;4.40;;
49071;SDS011;52656;52.610;10.236;2023-03-13T05:57:10;26.63;;;4.95;;
49071;SDS011;52656;52.610;10.236;2023-03-13T05:59:35;22.15;;;6.10;;
49071;SDS011;52656;52.610;10.236;2023-03-13T06:02:00;23.65;;;5.68;;
49071;SDS011;52656;52.610;10.236;2023-03-13T06:04:26;21.90;;;4.00;;
49071;SDS011;52656;52.610;10.236;2023-03-13T06:06:51;15.70;;;3.67;;
49071;SDS011;52656;52.610;10.236;2023-03-13T06:09:16;25.98;;;5.70;;
49071;SDS011;52656;52.610;10.236;2023-03-13T06:11:41;18.65;;;4.57;;
49071;SDS011;52656;52.610;10.236;2023-03-13T06:14:07;25.05;;;4.95;;
49071;SDS011;52656;52.610;10.236;2023-03-13T06:16:32;26.42;;;5.10;;
49071;SDS011;52656;52.610;10.236;2023-03-13T06:18:58;22.30;;;4.97;;
49071;SDS011;52656;52.610;10.236;2023-03-13T06:21:23;26.67;;;5.65;;
49071;SDS011;52656;52.610;10.236;2023-03-13T06:23:49;23.25;;;4.68;;
49071;SDS011;52656;52.610;10.236;2023-03-13T06:26:14;17.35;;;4.65;;
49071;SDS011;52656;52.610;10.236;2023-03-13T06:28:39;22.42;;;6.13;;
49071;SDS011;52656;52.610;10.236;2023-03-13T06:31:05;17.23;;;4.68;;
49071;SDS011;52656;52.610;10.236;2023-03-13T06:33:32;20.75;;;4.72;;
49071;SDS011;52656;52.610;10.236;2023-03-13T06:35:59;19.50;;;4.00;;
49071;SDS011;52656;52.610;10.236;2023-03-13T06:38:26;15.90;;;4.00;;
49071;SDS011;52656;52.610;10.236;2023-03-13T06:40:52;18.13;;;4.75;;
49071;SDS011;52656;52.610;10.236;2023-03-13T06:43:17;23.92;;;4.20;;
49071;SDS011;52656;52.610;10.236;2023-03-13T06:45:43;10.48;;;2.78;;
49071;SDS011;52656;52.610;10.236;2023-03-13T06:48:09;12.45;;;3.17;;
49071;SDS011;52656;52.610;10.236;2023-03-13T06:50:36;25.42;;;4.57;;
49071;SDS011;52656;52.610;10.236;2023-03-13T06:53:03;20.58;;;4.55;;
49071;SDS011;52656;52.610;10.236;2023-03-13T06:55:28;14.73;;;3.30;;
49071;SDS011;52656;52.610;10.236;2023-03-13T06:57:53;24.08;;;3.83;;
49071;SDS011;52656;52.610;10.236;2023-03-13T07:00:19;15.68;;;3.55;;
49071;SDS011;52656;52.610;10.236;2023-03-13T07:02:45;15.70;;;4.65;;
49071;SDS011;52656;52.610;10.236;2023-03-13T07:05:10;12.65;;;3.25;;
49071;SDS011;52656;52.610;10.236;2023-03-13T07:07:36;14.90;;;4.10;;
49071;SDS011;52656;52.610;10.236;2023-03-13T07:10:01;14.20;;;4.32;;
49071;SDS011;52656;52.610;10.236;2023-03-13T07:12:27;16.05;;;3.55;;
49071;SDS011;52656;52.610;10.236;2023-03-13T07:14:52;19.45;;;4.18;;
49071;SDS011;52656;52.610;10.236;2023-03-13T07:17:17;17.85;;;4.70;;
49071;SDS011;52656;52.610;10.236;2023-03-13T07:19:43;11.00;;;3.35;;
49071;SDS011;52656;52.610;10.236;2023-03-13T07:22:08;16.92;;;3.03;;
49071;SDS011;52656;52.610;10.236;2023-03-13T07:24:33;13.75;;;3.90;;
49071;SDS011;52656;52.610;10.236;2023-03-13T07:26:59;9.05;;;2.90;;
49071;SDS011;52656;52.610;10.236;2023-03-13T07:29:24;12.75;;;3.47;;
49071;SDS011;52656;52.610;10.236;2023-03-13T07:31:49;16.05;;;2.97;;
49071;SDS011;52656;52.610;10.236;2023-03-13T07:34:15;10.20;;;3.17;;
49071;SDS011;52656;52.610;10.236;2023-03-13T07:36:40;11.75;;;3.30;;
49071;SDS011;52656;52.610;10.236;2023-03-13T07:39:06;13.38;;;2.85;;
49071;SDS011;52656;52.610;10.236;2023-03-13T07:43:57;11.95;;;3.38;;
49071;SDS011;52656;52.610;10.236;2023-03-13T07:46:22;9.05;;;3.35;;
49071;SDS011;52656;52.610;10.236;2023-03-13T07:48:48;11.52;;;2.80;;
49071;SDS011;52656;52.610;10.236;2023-03-13T07:53:47;6.50;;;2.42;;
49071;SDS011;52656;52.610;10.236;2023-03-13T07:56:14;9.77;;;2.55;;
49071;SDS011;52656;52.610;10.236;2023-03-13T07:58:44;9.00;;;2.50;;
49071;SDS011;52656;52.610;10.236;2023-03-13T08:01:11;6.22;;;2.53;;
49071;SDS011;52656;52.610;10.236;2023-03-13T08:03:37;7.85;;;3.10;;
49071;SDS011;52656;52.610;10.236;2023-03-13T08:06:04;10.30;;;2.83;;
49071;SDS011;52656;52.610;10.236;2023-03-13T08:08:31;5.47;;;2.40;;
49071;SDS011;52656;52.610;10.236;2023-03-13T08:11:01;5.03;;;2.40;;
49071;SDS011;52656;52.610;10.236;2023-03-13T08:13:27;4.45;;;2.15;;
49071;SDS011;52656;52.610;10.236;2023-03-13T08:16:00;4.95;;;2.50;;
49071;SDS011;52656;52.610;10.236;2023-03-13T08:18:33;9.43;;;2.50;;
49071;SDS011;52656;52.610;10.236;2023-03-13T08:21:32;5.85;;;2.50;;
49071;SDS011;52656;52.610;10.236;2023-03-13T08:23:52;5.70;;;2.50;;
49071;SDS011;52656;52.610;10.236;2023-03-13T08:26:20;9.73;;;3.17;;
49071;SDS011;52656;52.610;10.236;2023-03-13T08:28:50;5.80;;;2.53;;
49071;SDS011;52656;52.610;10.236;2023-03-13T08:31:18;4.95;;;2.65;;
49071;SDS011;52656;52.610;10.236;2023-03-13T08:33:46;5.68;;;2.50;;
49071;SDS011;52656;52.610;10.236;2023-03-13T08:36:13;5.22;;;2.08;;
49071;SDS011;52656;52.610;10.236;2023-03-13T08:38:44;9.60;;;2.42;;
49071;SDS011;52656;52.610;10.236;2023-03-13T08:41:11;5.07;;;2.67;;
49071;SDS011;52656;52.610;10.236;2023-03-13T08:43:37;4.00;;;2.20;;
49071;SDS011;52656;52.610;10.236;2023-03-13T08:48:28;5.25;;;2.40;;
49071;SDS011;52656;52.610;10.236;2023-03-13T08:51:03;5.25;;;2.65;;
49071;SDS011;52656;52.610;10.236;2023-03-13T08:53:33;7.30;;;2.67;;
49071;SDS011;52656;52.610;10.236;2023-03-13T08:56:00;6.68;;;2.67;;
49071;SDS011;52656;52.610;10.236;2023-03-13T09:00:51;4.43;;;2.65;;
49071;SDS011;52656;52.610;10.236;2023-03-13T09:05:42;6.90;;;2.45;;
49071;SDS011;52656;52.610;10.236;2023-03-13T09:08:09;4.38;;;2.47;;
49071;SDS011;52656;52.610;10.236;2023-03-13T09:13:00;4.53;;;2.65;;
49071;SDS011;52656;52.610;10.236;2023-03-13T09:15:27;4.00;;;2.30;;
49071;SDS011;52656;52.610;10.236;2023-03-13T09:20:17;2.80;;;2.00;;
49071;SDS011;52656;52.610;10.236;2023-03-13T09:25:09;4.40;;;2.13;;
49071;SDS011;52656;52.610;10.236;2023-03-13T09:30:00;4.82;;;2.60;;
49071;SDS011;52656;52.610;10.236;2023-03-13T09:32:25;6.15;;;2.90;;
49071;SDS011;52656;52.610;10.236;2023-03-13T09:37:16;6.05;;;2.55;;
49071;SDS011;52656;52.610;10.236;2023-03-13T09:42:11;5.18;;;2.72;;
49071;SDS011;52656;52.610;10.236;2023-03-13T09:44:39;4.63;;;2.50;;
49071;SDS011;52656;52.610;10.236;2023-03-13T09:47:15;5.38;;;3.17;;
49071;SDS011;52656;52.610;10.236;2023-03-13T09:49:55;6.18;;;3.55;;
49071;SDS011;52656;52.610;10.236;2023-03-13T09:52:28;6.82;;;3.15;;
49071;SDS011;52656;52.610;10.236;2023-03-13T09:55:04;4.43;;;2.58;;
49071;SDS011;52656;52.610;10.236;2023-03-13T10:00:42;4.68;;;2.60;;
49071;SDS011;52656;52.610;10.236;2023-03-13T10:05:48;5.65;;;2.90;;
49071;SDS011;52656;52.610;10.236;2023-03-13T10:08:20;5.07;;;2.70;;
49071;SDS011;52656;52.610;10.236;2023-03-13T10:11:03;5.53;;;2.90;;
49071;SDS011;52656;52.610;10.236;2023-03-13T10:13:38;4.47;;;2.55;;
49071;SDS011;52656;52.610;10.236;2023-03-13T10:16:31;4.13;;;2.53;;
49071;SDS011;52656;52.610;10.236;2023-03-13T10:19:16;4.53;;;2.13;;
49071;SDS011;52656;52.610;10.236;2023-03-13T10:21:47;4.53;;;2.88;;
49071;SDS011;52656;52.610;10.236;2023-03-13T10:24:31;5.50;;;2.80;;
49071;SDS011;52656;52.610;10.236;2023-03-13T10:27:01;4.75;;;2.80;;
49071;SDS011;52656;52.610;10.236;2023-03-13T10:31:57;3.80;;;2.20;;
49071;SDS011;52656;52.610;10.236;2023-03-13T10:34:25;11.63;;;2.60;;
49071;SDS011;52656;52.610;10.236;2023-03-13T10:36:58;3.55;;;2.22;;
49071;SDS011;52656;52.610;10.236;2023-03-13T10:39:26;5.55;;;2.40;;
49071;SDS011;52656;52.610;10.236;2023-03-13T10:41:58;4.25;;;2.30;;
49071;SDS011;52656;52.610;10.236;2023-03-13T10:44:36;6.22;;;2.97;;
49071;SDS011;52656;52.610;10.236;2023-03-13T10:49:28;5.60;;;2.67;;
49071;SDS011;52656;52.610;10.236;2023-03-13T10:51:59;3.85;;;2.42;;
49071;SDS011;52656;52.610;10.236;2023-03-13T10:54:31;4.88;;;2.45;;
49071;SDS011;52656;52.610;10.236;2023-03-13T10:57:09;3.65;;;2.33;;
49071;SDS011;52656;52.610;10.236;2023-03-13T10:59:47;2.75;;;1.77;;
49071;SDS011;52656;52.610;10.236;2023-03-13T11:02:19;3.17;;;1.85;;
49071;SDS011;52656;52.610;10.236;2023-03-13T11:04:46;2.42;;;1.63;;
49071;SDS011;52656;52.610;10.236;2023-03-13T11:12:26;6.32;;;2.05;;
49071;SDS011;52656;52.610;10.236;2023-03-13T11:14:58;4.13;;;2.03;;
49071;SDS011;52656;52.610;10.236;2023-03-13T11:17:31;3.63;;;1.95;;
49071;SDS011;52656;52.610;10.236;2023-03-13T11:22:49;4.53;;;1.70;;
49071;SDS011;52656;52.610;10.236;2023-03-13T11:28:18;2.80;;;1.70;;
49071;SDS011;52656;52.610;10.236;2023-03-13T11:31:04;4.00;;;1.98;;
49071;SDS011;52656;52.610;10.236;2023-03-13T11:38:53;2.95;;;2.00;;
49071;SDS011;52656;52.610;10.236;2023-03-13T11:47:04;3.47;;;1.83;;
49071;SDS011;52656;52.610;10.236;2023-03-13T11:52:57;8.52;;;2.17;;
49071;SDS011;52656;52.610;10.236;2023-03-13T11:55:27;3.75;;;1.90;;
49071;SDS011;52656;52.610;10.236;2023-03-13T11:58:14;4.07;;;1.98;;
49071;SDS011;52656;52.610;10.236;2023-03-13T12:03:17;3.80;;;1.98;;
49071;SDS011;52656;52.610;10.236;2023-03-13T12:13:38;4.53;;;1.83;;
49071;SDS011;52656;52.610;10.236;2023-03-13T12:16:10;4.55;;;2.28;;
49071;SDS011;52656;52.610;10.236;2023-03-13T12:18:41;4.28;;;2.20;;
49071;SDS011;52656;52.610;10.236;2023-03-13T12:23:59;5.80;;;2.10;;
49071;SDS011;52656;52.610;10.236;2023-03-13T12:31:52;5.10;;;1.90;;
49071;SDS011;52656;52.610;10.236;2023-03-13T12:34:29;3.50;;;1.88;;
49071;SDS011;52656;52.610;10.236;2023-03-13T12:37:02;3.97;;;1.90;;
49071;SDS011;52656;52.610;10.236;2023-03-13T12:42:41;3.42;;;1.80;;
49071;SDS011;52656;52.610;10.236;2023-03-13T12:45:16;3.25;;;1.63;;
49071;SDS011;52656;52.610;10.236;2023-03-13T12:50:43;4.63;;;2.03;;
49071;SDS011;52656;52.610;10.236;2023-03-13T12:53:39;4.72;;;1.70;;
49071;SDS011;52656;52.610;10.236;2023-03-13T12:59:10;5.68;;;1.77;;
49071;SDS011;52656;52.610;10.236;2023-03-13T13:01:41;7.40;;;2.05;;
49071;SDS011;52656;52.610;10.236;2023-03-13T13:04:20;3.42;;;1.60;;
49071;SDS011;52656;52.610;10.236;2023-03-13T13:09:34;3.22;;;1.58;;
49071;SDS011;52656;52.610;10.236;2023-03-13T13:19:48;4.38;;;1.70;;
49071;SDS011;52656;52.610;10.236;2023-03-13T13:32:48;3.53;;;1.90;;
49071;SDS011;52656;52.610;10.236;2023-03-13T13:41:06;4.28;;;1.88;;
49071;SDS011;52656;52.610;10.236;2023-03-13T13:43:34;2.58;;;1.85;;
49071;SDS011;52656;52.610;10.236;2023-03-13T13:46:05;4.13;;;1.80;;
49071;SDS011;52656;52.610;10.236;2023-03-13T13:48:41;3.53;;;1.60;;
49071;SDS011;52656;52.610;10.236;2023-03-13T14:02:11;4.10;;;1.70;;
49071;SDS011;52656;52.610;10.236;2023-03-13T14:07:17;4.00;;;1.90;;
49071;SDS011;52656;52.610;10.236;2023-03-13T14:09:49;3.95;;;1.92;;
49071;SDS011;52656;52.610;10.236;2023-03-13T14:17:57;2.90;;;1.77;;
49071;SDS011;52656;52.610;10.236;2023-03-13T14:22:52;3.33;;;1.42;;
49071;SDS011;52656;52.610;10.236;2023-03-13T14:25:20;5.07;;;1.63;;
49071;SDS011;52656;52.610;10.236;2023-03-13T14:27:48;2.25;;;1.30;;
49071;SDS011;52656;52.610;10.236;2023-03-13T14:30:15;3.05;;;1.40;;
49071;SDS011;52656;52.610;10.236;2023-03-13T14:32:43;3.33;;;1.38;;
49071;SDS011;52656;52.610;10.236;2023-03-13T14:35:09;2.88;;;1.58;;
49071;SDS011;52656;52.610;10.236;2023-03-13T14:37:41;1.92;;;1.40;;
49071;SDS011;52656;52.610;10.236;2023-03-13T14:42:42;2.17;;;1.40;;
49071;SDS011;52656;52.610;10.236;2023-03-13T14:45:13;3.15;;;1.15;;
49071;SDS011;52656;52.610;10.236;2023-03-13T14:47:39;2.10;;;1.17;;
49071;SDS011;52656;52.610;10.236;2023-03-13T14:50:12;1.73;;;1.13;;
49071;SDS011;52656;52.610;10.236;2023-03-13T14:52:46;1.60;;;1.00;;
49071;SDS011;52656;52.610;10.236;2023-03-13T15:00:32;1.15;;;0.90;;
49071;SDS011;52656;52.610;10.236;2023-03-13T15:03:17;2.15;;;1.02;;
49071;SDS011;52656;52.610;10.236;2023-03-13T15:08:34;2.25;;;1.13;;
49071;SDS011;52656;52.610;10.236;2023-03-13T15:11:01;0.88;;;0.80;;
49071;SDS011;52656;52.610;10.236;2023-03-13T15:13:32;1.50;;;0.90;;
49071;SDS011;52656;52.610;10.236;2023-03-13T15:16:00;1.90;;;1.05;;
49071;SDS011;52656;52.610;10.236;2023-03-13T15:18:27;2.00;;;1.15;;
49071;SDS011;52656;52.610;10.236;2023-03-13T15:21:38;2.35;;;1.20;;
49071;SDS011;52656;52.610;10.236;2023-03-13T15:23:57;2.70;;;1.10;;
49071;SDS011;52656;52.610;10.236;2023-03-13T15:26:25;1.85;;;1.20;;
49071;SDS011;52656;52.610;10.236;2023-03-13T15:28:51;1.50;;;1.00;;
49071;SDS011;52656;52.610;10.236;2023-03-13T15:31:16;2.13;;;1.10;;
49071;SDS011;52656;52.610;10.236;2023-03-13T15:33:44;1.40;;;1.10;;
49071;SDS011;52656;52.610;10.236;2023-03-13T15:36:10;2.58;;;1.08;;
49071;SDS011;52656;52.610;10.236;2023-03-13T15:38:36;1.88;;;0.90;;
49071;SDS011;52656;52.610;10.236;2023-03-13T15:41:01;1.15;;;0.77;;
49071;SDS011;52656;52.610;10.236;2023-03-13T15:43:27;1.45;;;0.98;;
49071;SDS011;52656;52.610;10.236;2023-03-13T15:45:52;1.58;;;0.85;;
49071;SDS011;52656;52.610;10.236;2023-03-13T15:48:19;2.53;;;0.88;;
49071;SDS011;52656;52.610;10.236;2023-03-13T15:50:49;1.67;;;1.00;;
49071;SDS011;52656;52.610;10.236;2023-03-13T15:53:17;1.45;;;1.00;;
49071;SDS011;52656;52.610;10.236;2023-03-13T15:55:48;2.35;;;1.10;;
49071;SDS011;52656;52.610;10.236;2023-03-13T15:58:14;2.35;;;1.00;;
49071;SDS011;52656;52.610;10.236;2023-03-13T16:00:41;1.67;;;0.88;;
49071;SDS011;52656;52.610;10.236;2023-03-13T16:03:14;1.23;;;0.90;;
49071;SDS011;52656;52.610;10.236;2023-03-13T16:05:41;1.77;;;0.95;;
49071;SDS011;52656;52.610;10.236;2023-03-13T16:08:09;1.10;;;0.70;;
49071;SDS011;52656;52.610;10.236;2023-03-13T16:10:38;1.27;;;1.02;;
49071;SDS011;52656;52.610;10.236;2023-03-13T16:13:03;1.67;;;1.00;;
49071;SDS011;52656;52.610;10.236;2023-03-13T16:15:29;3.42;;;1.08;;
49071;SDS011;52656;52.610;10.236;2023-03-13T16:17:54;1.63;;;1.00;;
49071;SDS011;52656;52.610;10.236;2023-03-13T16:20:20;2.38;;;0.90;;
49071;SDS011;52656;52.610;10.236;2023-03-13T16:22:47;1.60;;;0.82;;
49071;SDS011;52656;52.610;10.236;2023-03-13T16:25:13;1.65;;;1.10;;
49071;SDS011;52656;52.610;10.236;2023-03-13T16:27:40;3.60;;;1.30;;
49071;SDS011;52656;52.610;10.236;2023-03-13T16:30:16;2.95;;;1.17;;
49071;SDS011;52656;52.610;10.236;2023-03-13T16:32:45;1.50;;;1.10;;
49071;SDS011;52656;52.610;10.236;2023-03-13T16:35:11;1.38;;;0.90;;
49071;SDS011;52656;52.610;10.236;2023-03-13T16:40:02;0.93;;;0.73;;
49071;SDS011;52656;52.610;10.236;2023-03-13T16:42:30;1.65;;;1.10;;
49071;SDS011;52656;52.610;10.236;2023-03-13T16:44:55;1.33;;;1.02;;
49071;SDS011;52656;52.610;10.236;2023-03-13T16:47:22;3.97;;;0.98;;
49071;SDS011;52656;52.610;10.236;2023-03-13T16:49:51;1.88;;;1.10;;
49071;SDS011;52656;52.610;10.236;2023-03-13T16:52:17;3.38;;;1.15;;
49071;SDS011;52656;52.610;10.236;2023-03-13T16:57:09;1.80;;;1.02;;
49071;SDS011;52656;52.610;10.236;2023-03-13T16:59:40;1.35;;;0.90;;
49071;SDS011;52656;52.610;10.236;2023-03-13T17:02:13;2.60;;;1.10;;
49071;SDS011;52656;52.610;10.236;2023-03-13T17:04:40;1.83;;;1.08;;
49071;SDS011;52656;52.610;10.236;2023-03-13T17:07:38;1.65;;;1.00;;
49071;SDS011;52656;52.610;10.236;2023-03-13T17:09:56;1.42;;;1.00;;
49071;SDS011;52656;52.610;10.236;2023-03-13T17:12:22;2.35;;;1.20;;
49071;SDS011;52656;52.610;10.236;2023-03-13T17:14:47;1.80;;;0.90;;
49071;SDS011;52656;52.610;10.236;2023-03-13T17:17:14;3.58;;;1.30;;
49071;SDS011;52656;52.610;10.236;2023-03-13T17:19:41;2.20;;;1.20;;
49071;SDS011;52656;52.610;10.236;2023-03-13T17:22:08;1.73;;;1.13;;
49071;SDS011;52656;52.610;10.236;2023-03-13T17:24:39;3.70;;;1.10;;
49071;SDS011;52656;52.610;10.236;2023-03-13T17:27:08;1.60;;;0.95;;
49071;SDS011;52656;52.610;10.236;2023-03-13T17:29:36;2.88;;;1.15;;
49071;SDS011;52656;52.610;10.236;2023-03-13T17:32:01;2.58;;;1.08;;